Time;durP1;ratioP1;P1;durP2;ratioP2;P2;SDS_P1;SDS_P2;PMS_P1;PMS_P2;Temp;Humidity;BMP_temperature;BMP_pressure;BME280_temperature;BME280_humidity;BME280_pressure;Samples;Min_cycle;Max_cycle;Signal;HPM_P1;HPM_P2
2023/08/22 00:02:05;;;;;;;11.33;6.73;;;18.10;1.00;;;;;;5078443;28;20493;-57
2023/08/22 00:04:33;;;;;;;8.63;6.00;;;18.00;1.00;;;;;;5078148;28;20901;-57
2023/08/22 00:07:00;;;;;;;9.47;6.10;;;17.90;1.00;;;;;;5076477;28;20462;-58
2023/08/22 00:09:28;;;;;;;8.60;5.97;;;17.90;1.00;;;;;;5077575;28;20962;-55
2023/08/22 00:11:55;;;;;;;10.63;6.17;;;17.90;1.00;;;;;;5077790;28;20544;-57
2023/08/22 00:14:22;;;;;;;9.60;5.90;;;17.90;1.00;;;;;;5078255;28;20497;-56
2023/08/22 00:16:49;;;;;;;9.10;6.20;;;17.90;1.00;;;;;;5077054;28;20552;-56
2023/08/22 00:19:16;;;;;;;7.40;5.87;;;17.80;1.00;;;;;;5076430;28;20457;-57
2023/08/22 00:21:45;;;;;;;8.13;5.53;;;17.80;99.90;;;;;;5076199;28;20495;-58
2023/08/22 00:24:12;;;;;;;10.27;6.00;;;17.90;99.90;;;;;;5076477;28;20463;-56
2023/08/22 00:26:39;;;;;;;10.43;5.90;;;17.90;99.90;;;;;;5076147;28;20962;-57
2023/08/22 00:29:06;;;;;;;6.00;5.40;;;17.80;99.90;;;;;;5075922;28;20472;-56
2023/08/22 00:31:34;;;;;;;7.63;5.83;;;17.80;99.90;;;;;;5075837;28;20457;-56
2023/08/22 00:34:02;;;;;;;13.00;6.43;;;17.80;99.90;;;;;;5077121;28;20481;-58
2023/08/22 00:36:29;;;;;;;10.93;6.03;;;17.70;99.90;;;;;;5077598;28;20461;-58
2023/08/22 00:38:57;;;;;;;8.30;6.23;;;17.70;99.90;;;;;;5076473;28;20780;-58
2023/08/22 00:41:25;;;;;;;10.10;6.27;;;17.60;99.90;;;;;;5077577;28;20495;-57
2023/08/22 00:43:52;;;;;;;8.67;6.10;;;17.50;99.90;;;;;;5077482;28;20544;-58
2023/08/22 00:46:20;;;;;;;7.10;5.90;;;17.40;1.00;;;;;;5077509;28;20496;-58
2023/08/22 00:48:47;;;;;;;10.30;6.80;;;17.30;1.00;;;;;;5077637;28;20457;-55
2023/08/22 00:51:16;;;;;;;8.80;5.90;;;17.40;1.00;;;;;;5077162;28;20468;-57
2023/08/22 00:53:43;;;;;;;7.63;6.43;;;17.40;1.00;;;;;;5076971;28;20464;-58
2023/08/22 00:56:12;;;;;;;8.30;5.63;;;17.40;1.00;;;;;;5077275;28;20893;-59
2023/08/22 00:58:40;;;;;;;7.30;5.77;;;17.40;1.00;;;;;;5076413;28;20464;-58
2023/08/22 01:01:07;;;;;;;6.47;5.87;;;17.40;1.00;;;;;;5076094;28;20485;-58
2023/08/22 01:03:34;;;;;;;10.40;6.30;;;17.30;1.00;;;;;;5076872;28;20548;-55
2023/08/22 01:06:09;;;;;;;8.70;5.87;;;17.30;1.00;;;;;;5077353;28;20457;-58
2023/08/22 01:08:39;;;;;;;9.80;5.70;;;17.20;1.00;;;;;;5076288;28;20483;-58
2023/08/22 01:11:16;;;;;;;7.60;5.83;;;17.20;1.00;;;;;;5076696;28;20928;-58
2023/08/22 01:13:48;;;;;;;8.43;5.67;;;17.30;99.90;;;;;;5077550;28;20551;-58
2023/08/22 01:16:17;;;;;;;6.23;5.63;;;17.30;99.90;;;;;;5077012;28;20548;-58
2023/08/22 01:18:46;;;;;;;9.23;6.40;;;17.20;99.90;;;;;;5076456;28;20820;-58
2023/08/22 01:21:20;;;;;;;12.73;6.40;;;17.10;99.90;;;;;;5077578;28;20503;-58
2023/08/22 01:23:48;;;;;;;7.10;6.10;;;17.00;1.00;;;;;;5076758;28;20465;-59
2023/08/22 01:26:16;;;;;;;7.53;6.03;;;17.00;1.00;;;;;;5077232;28;20500;-58
2023/08/22 01:28:46;;;;;;;7.83;5.73;;;17.00;1.00;;;;;;5077123;28;20461;-58
2023/08/22 01:31:22;;;;;;;9.83;6.10;;;16.90;1.00;;;;;;5075806;28;20462;-56
2023/08/22 01:33:55;;;;;;;6.93;6.23;;;16.80;1.00;;;;;;5076987;28;21005;-56
2023/08/22 01:36:24;;;;;;;8.53;6.80;;;16.70;1.00;;;;;;5077503;28;20463;-58
2023/08/22 01:38:54;;;;;;;6.70;5.50;;;16.80;33.00;;;;;;5076250;28;20487;-59
2023/08/22 01:41:23;;;;;;;6.00;5.50;;;16.80;37.80;;;;;;5076464;28;20941;-58
2023/08/22 01:43:51;;;;;;;10.77;6.03;;;16.80;1.00;;;;;;5077321;28;20461;-58
2023/08/22 01:46:18;;;;;;;6.60;5.60;;;16.80;1.00;;;;;;5076350;28;20459;-59
2023/08/22 01:48:45;;;;;;;6.10;5.37;;;16.90;1.00;;;;;;5076799;28;20465;-57
2023/08/22 01:51:13;;;;;;;7.53;5.80;;;16.90;1.00;;;;;;5076372;28;20483;-58
2023/08/22 01:53:40;;;;;;;8.97;5.87;;;16.80;1.00;;;;;;5076702;28;20462;-58
2023/08/22 01:56:08;;;;;;;6.87;6.10;;;16.80;1.00;;;;;;5076004;28;20457;-56
2023/08/22 01:58:36;;;;;;;8.90;5.77;;;16.70;1.00;;;;;;5075836;28;20464;-56
2023/08/22 02:01:09;;;;;;;5.40;4.90;;;16.50;1.00;;;;;;5076061;28;20491;-57
2023/08/22 02:03:36;;;;;;;10.37;5.80;;;16.50;89.30;;;;;;5076433;28;20460;-58
2023/08/22 02:06:03;;;;;;;8.00;5.90;;;16.60;99.90;;;;;;5076908;28;20924;-58
2023/08/22 02:08:31;;;;;;;6.00;5.40;;;16.60;51.80;;;;;;5075717;28;20468;-57
2023/08/22 02:10:58;;;;;;;6.83;5.50;;;16.60;50.30;;;;;;5076291;28;20469;-58
2023/08/22 02:13:27;;;;;;;10.20;6.27;;;16.60;45.30;;;;;;5079897;28;20511;-57
2023/08/22 02:15:54;;;;;;;6.30;5.60;;;16.60;41.40;;;;;;5080754;28;20937;-57
2023/08/22 02:18:21;;;;;;;6.50;5.80;;;16.60;49.10;;;;;;5080026;28;20519;-59
2023/08/22 02:20:55;;;;;;;7.43;5.60;;;16.50;40.10;;;;;;5079900;28;21000;-58
2023/08/22 02:23:22;;;;;;;7.57;5.17;;;16.50;82.30;;;;;;5080121;28;20555;-59
2023/08/22 02:25:49;;;;;;;6.90;5.63;;;16.50;84.00;;;;;;5080393;28;20485;-58
2023/08/22 02:28:16;;;;;;;7.80;5.60;;;16.50;52.40;;;;;;5079866;28;20489;-58
2023/08/22 02:30:45;;;;;;;10.40;5.03;;;16.50;1.00;;;;;;5080085;28;20461;-59
2023/08/22 02:33:12;;;;;;;7.83;5.33;;;16.40;1.00;;;;;;5079753;28;20483;-58
2023/08/22 02:35:39;;;;;;;9.30;5.40;;;16.40;1.00;;;;;;5080278;28;20457;-58
2023/08/22 02:38:06;;;;;;;7.73;5.60;;;16.40;1.00;;;;;;5080179;28;20561;-58
2023/08/22 02:40:34;;;;;;;15.70;5.57;;;16.40;1.00;;;;;;5078851;28;20467;-58
2023/08/22 02:43:01;;;;;;;7.30;5.83;;;16.30;1.00;;;;;;5079715;28;20544;-58
2023/08/22 02:45:28;;;;;;;7.33;5.20;;;16.30;1.00;;;;;;5079797;28;20475;-58
2023/08/22 02:47:57;;;;;;;6.13;4.77;;;16.30;1.00;;;;;;5079837;28;20500;-59
2023/08/22 02:50:24;;;;;;;9.53;5.27;;;16.20;26.40;;;;;;5078833;28;20468;-59
2023/08/22 02:52:52;;;;;;;9.07;5.67;;;16.30;1.00;;;;;;5079981;28;20471;-58
2023/08/22 02:55:19;;;;;;;6.73;5.33;;;16.20;1.00;;;;;;5079597;28;20462;-58
2023/08/22 02:57:46;;;;;;;6.83;5.37;;;16.20;20.80;;;;;;5079184;28;20555;-58
2023/08/22 03:00:15;;;;;;;7.30;5.53;;;16.20;26.90;;;;;;5078731;28;20529;-59
2023/08/22 03:02:42;;;;;;;6.17;5.57;;;16.20;68.60;;;;;;5079937;28;20489;-59
2023/08/22 03:05:12;;;;;;;6.20;5.00;;;16.20;12.80;;;;;;5079311;28;20906;-59
2023/08/22 03:07:40;;;;;;;9.90;5.33;;;16.20;22.60;;;;;;5079176;28;20468;-57
2023/08/22 03:10:09;;;;;;;8.23;6.10;;;16.20;38.30;;;;;;5079026;28;20464;-58
2023/08/22 03:12:36;;;;;;;8.70;5.30;;;16.30;52.80;;;;;;5078797;28;20909;-58
2023/08/22 03:15:04;;;;;;;9.17;5.93;;;16.20;37.50;;;;;;5079096;28;20475;-59
2023/08/22 03:17:31;;;;;;;9.13;5.57;;;16.20;10.80;;;;;;5079364;28;20771;-58
2023/08/22 03:19:58;;;;;;;10.23;5.70;;;16.10;60.30;;;;;;5079015;28;20531;-58
2023/08/22 03:22:27;;;;;;;8.80;5.20;;;16.00;96.00;;;;;;5078184;28;20491;-59
2023/08/22 03:24:54;;;;;;;8.60;5.97;;;16.00;99.90;;;;;;5077802;28;20461;-58
2023/08/22 03:27:21;;;;;;;6.43;5.57;;;16.00;99.90;;;;;;5078745;28;20556;-58
2023/08/22 03:29:49;;;;;;;9.97;6.30;;;15.90;99.90;;;;;;5078750;28;20465;-59
2023/08/22 03:32:16;;;;;;;8.83;5.20;;;15.90;99.90;;;;;;5077944;28;20456;-58
2023/08/22 03:34:43;;;;;;;10.50;5.73;;;15.90;99.90;;;;;;5077827;28;20485;-58
2023/08/22 03:37:10;;;;;;;5.80;5.20;;;15.90;99.90;;;;;;5078878;28;20853;-58
2023/08/22 03:39:39;;;;;;;8.23;5.30;;;15.90;99.90;;;;;;5078559;28;20468;-58
2023/08/22 03:42:06;;;;;;;6.10;5.50;;;15.90;99.90;;;;;;5078675;28;20496;-59
2023/08/22 03:44:33;;;;;;;8.70;5.57;;;15.90;99.90;;;;;;5077136;28;20762;-58
2023/08/22 03:47:00;;;;;;;7.50;5.73;;;16.00;99.90;;;;;;5078352;28;20463;-58
2023/08/22 03:49:28;;;;;;;8.20;5.67;;;16.00;99.90;;;;;;5078139;28;20472;-59
2023/08/22 03:51:55;;;;;;;5.63;4.93;;;16.00;99.90;;;;;;5078388;28;20548;-59
2023/08/22 03:54:22;;;;;;;7.80;5.53;;;16.00;99.90;;;;;;5077544;28;20468;-58
2023/08/22 03:56:51;;;;;;;6.57;5.17;;;16.00;99.90;;;;;;5078757;28;20453;-59
2023/08/22 03:59:18;;;;;;;6.20;5.33;;;16.00;99.90;;;;;;5078099;28;20534;-59
2023/08/22 04:01:45;;;;;;;9.40;5.33;;;16.00;99.90;;;;;;5078034;28;20563;-59
2023/08/22 04:04:14;;;;;;;9.13;4.90;;;16.00;99.90;;;;;;5078029;28;20462;-60
2023/08/22 04:06:41;;;;;;;5.03;4.40;;;16.00;99.90;;;;;;5078179;28;20818;-58
2023/08/22 04:09:09;;;;;;;8.83;4.40;;;16.00;99.90;;;;;;5064485;28;20462;-58
2023/08/22 04:11:36;;;;;;;10.10;5.50;;;16.00;99.90;;;;;;5058335;28;20462;-58
2023/08/22 04:14:04;;;;;;;8.90;5.90;;;16.00;99.90;;;;;;5057964;28;20531;-59
2023/08/22 04:16:32;;;;;;;6.97;5.20;;;15.90;99.90;;;;;;5057840;28;20461;-58
2023/08/22 04:18:59;;;;;;;6.33;5.50;;;15.90;99.90;;;;;;5076440;28;20466;-59
2023/08/22 04:21:26;;;;;;;6.97;5.70;;;15.80;99.90;;;;;;5077597;28;20457;-58
2023/08/22 04:23:53;;;;;;;9.10;5.53;;;15.80;99.90;;;;;;5076871;28;20461;-58
2023/08/22 04:26:20;;;;;;;9.63;6.03;;;15.90;99.90;;;;;;5076957;28;20453;-59
2023/08/22 04:28:47;;;;;;;5.37;4.80;;;15.90;99.90;;;;;;5075989;28;20788;-58
2023/08/22 04:31:16;;;;;;;7.47;5.27;;;15.90;99.90;;;;;;5076401;28;20453;-58
2023/08/22 04:33:43;;;;;;;9.80;5.50;;;15.90;99.90;;;;;;5075813;28;20503;-58
2023/08/22 04:36:10;;;;;;;6.93;5.97;;;15.90;99.90;;;;;;5076734;28;20463;-58
2023/08/22 04:38:37;;;;;;;6.00;5.40;;;15.90;99.90;;;;;;5075795;28;20540;-59
2023/08/22 04:41:05;;;;;;;6.67;5.50;;;15.90;99.90;;;;;;5074760;28;20910;-58
2023/08/22 04:43:32;;;;;;;12.30;5.97;;;15.90;99.90;;;;;;5076600;28;20497;-58
2023/08/22 04:46:01;;;;;;;11.03;6.07;;;15.90;99.90;;;;;;5076783;28;20453;-58
2023/08/22 04:48:30;;;;;;;7.33;5.90;;;15.90;99.90;;;;;;5061411;28;20443;-57
2023/08/22 04:50:57;;;;;;;8.07;5.43;;;16.00;99.90;;;;;;5075721;28;20457;-59
2023/08/22 04:53:24;;;;;;;6.80;5.27;;;16.00;99.90;;;;;;5076121;28;20458;-58
2023/08/22 04:55:51;;;;;;;5.97;5.10;;;16.10;99.90;;;;;;5075725;28;20511;-59
2023/08/22 04:58:19;;;;;;;9.30;5.57;;;16.10;99.90;;;;;;5074410;28;20461;-59
2023/08/22 05:00:46;;;;;;;6.00;5.40;;;16.00;99.90;;;;;;5074876;28;20485;-59
2023/08/22 05:03:14;;;;;;;7.20;4.87;;;16.00;99.90;;;;;;5076539;28;20641;-59
2023/08/22 05:05:44;;;;;;;5.87;5.13;;;16.00;99.90;;;;;;5077629;28;20757;-58
2023/08/22 05:08:11;;;;;;;8.80;5.17;;;16.00;99.90;;;;;;5075430;28;20462;-59
2023/08/22 05:10:39;;;;;;;6.33;4.83;;;16.10;99.90;;;;;;5077645;28;20463;-58
2023/08/22 05:13:06;;;;;;;6.43;5.70;;;16.10;99.90;;;;;;5076958;28;20559;-59
2023/08/22 05:15:33;;;;;;;7.67;5.83;;;16.20;99.90;;;;;;5076943;28;20504;-58
2023/08/22 05:18:00;;;;;;;8.20;5.87;;;16.30;99.90;;;;;;5076876;28;20450;-58
2023/08/22 05:20:27;;;;;;;9.57;5.90;;;16.40;99.90;;;;;;5075896;28;20464;-58
2023/08/22 05:22:56;;;;;;;9.97;5.60;;;16.40;99.90;;;;;;5075829;28;20583;-58
2023/08/22 05:25:23;;;;;;;8.93;6.23;;;16.40;99.90;;;;;;5076119;28;20458;-59
2023/08/22 05:27:50;;;;;;;7.70;6.20;;;16.40;99.90;;;;;;5075675;28;20461;-58
2023/08/22 05:30:18;;;;;;;7.33;5.77;;;16.40;99.90;;;;;;5076806;28;20496;-58
2023/08/22 05:32:45;;;;;;;8.47;4.73;;;16.40;99.90;;;;;;5077183;28;20457;-57
2023/08/22 05:35:12;;;;;;;8.67;5.70;;;16.50;99.90;;;;;;5076190;28;20486;-58
2023/08/22 05:37:39;;;;;;;9.47;5.40;;;16.50;99.90;;;;;;5075541;28;20488;-59
2023/08/22 05:40:10;;;;;;;8.40;5.73;;;16.70;99.90;;;;;;5076187;28;20460;-58
2023/08/22 05:42:37;;;;;;;9.50;6.90;;;16.80;99.90;;;;;;5076373;28;20840;-59
2023/08/22 05:45:05;;;;;;;6.80;5.83;;;17.00;99.90;;;;;;5072049;28;20469;-59
2023/08/22 05:47:32;;;;;;;10.90;6.30;;;17.20;99.90;;;;;;5078951;28;20456;-59
2023/08/22 05:49:59;;;;;;;10.27;7.50;;;17.40;99.90;;;;;;5080717;28;20457;-58
2023/08/22 05:52:26;;;;;;;12.17;7.93;;;17.40;6.30;;;;;;5081226;28;20457;-59
2023/08/22 05:54:53;;;;;;;12.10;7.83;;;17.50;1.00;;;;;;5079866;28;20902;-58
2023/08/22 05:57:22;;;;;;;9.80;6.67;;;17.80;1.00;;;;;;5080825;28;20453;-59
2023/08/22 05:59:50;;;;;;;8.17;6.80;;;17.90;1.00;;;;;;5080634;28;20472;-59
2023/08/22 06:02:17;;;;;;;12.43;7.40;;;18.00;1.00;;;;;;5080891;28;20929;-59
2023/08/22 06:04:46;;;;;;;10.23;6.97;;;17.90;1.00;;;;;;5080469;28;20877;-59
2023/08/22 06:07:13;;;;;;;9.67;8.30;;;17.90;1.00;;;;;;5080557;28;20945;-58
2023/08/22 06:09:40;;;;;;;7.13;6.37;;;17.80;99.90;;;;;;5080659;28;20457;-59
2023/08/22 06:12:08;;;;;;;9.00;7.27;;;17.90;99.90;;;;;;5080724;28;20463;-59
2023/08/22 06:14:37;;;;;;;7.27;6.13;;;18.00;99.90;;;;;;5080573;28;20461;-59
2023/08/22 06:17:04;;;;;;;7.77;5.40;;;18.00;99.90;;;;;;5079327;28;20484;-59
2023/08/22 06:19:32;;;;;;;7.30;6.30;;;18.00;99.90;;;;;;5080229;28;20461;-59
2023/08/22 06:21:59;;;;;;;12.00;6.07;;;18.00;99.90;;;;;;5079936;28;20526;-59
2023/08/22 06:24:26;;;;;;;15.20;6.80;;;18.10;99.90;;;;;;5080115;28;20488;-58
2023/08/22 06:26:53;;;;;;;11.60;6.97;;;18.30;1.00;;;;;;5079387;28;20901;-59
2023/08/22 06:29:21;;;;;;;13.47;7.27;;;18.50;16.60;;;;;;5077140;28;20461;-59
2023/08/22 06:31:49;;;;;;;15.70;8.90;;;18.60;1.00;;;;;;5076490;28;20479;-59
2023/08/22 06:34:17;;;;;;;15.23;7.83;;;18.80;1.00;;;;;;5077908;28;20508;-58
2023/08/22 06:36:44;;;;;;;20.03;9.33;;;18.90;1.00;;;;;;5078368;28;20724;-59
2023/08/22 06:39:12;;;;;;;13.97;8.53;;;19.00;72.70;;;;;;5078635;28;20461;-59
2023/08/22 06:41:39;;;;;;;16.10;9.30;;;19.00;99.90;;;;;;5077055;28;20964;-59
2023/08/22 06:44:09;;;;;;;17.70;8.77;;;19.10;99.90;;;;;;5075602;28;20493;-60
2023/08/22 06:46:36;;;;;;;18.20;9.10;;;19.20;99.90;;;;;;5076890;28;20464;-59
2023/08/22 06:49:05;;;;;;;12.50;8.53;;;19.20;1.00;;;;;;5075415;28;20576;-59
2023/08/22 06:51:33;;;;;;;13.77;9.17;;;19.20;1.00;;;;;;5077354;28;20463;-59
2023/08/22 06:54:01;;;;;;;15.57;9.80;;;19.30;99.90;;;;;;5076085;28;20894;-58
2023/08/22 06:56:28;;;;;;;20.47;9.83;;;19.40;99.90;;;;;;5076042;28;20471;-59
2023/08/22 06:58:55;;;;;;;12.83;9.80;;;19.60;1.00;;;;;;5078136;28;20454;-58
2023/08/22 07:01:23;;;;;;;12.73;8.43;;;19.90;99.90;;;;;;5079638;28;20829;-59
2023/08/22 07:03:50;;;;;;;11.57;7.87;;;20.10;99.90;;;;;;5078398;28;20586;-59
2023/08/22 07:06:19;;;;;;;12.27;8.20;;;20.10;99.90;;;;;;5078107;28;20453;-59
2023/08/22 07:08:46;;;;;;;11.23;8.67;;;20.20;99.90;;;;;;5077684;28;20496;-59
2023/08/22 07:11:13;;;;;;;9.47;7.90;;;20.40;87.30;;;;;;5075668;28;20461;-60
2023/08/22 07:13:41;;;;;;;13.93;6.97;;;20.80;99.90;;;;;;5061803;28;20513;-59
2023/08/22 07:16:08;;;;;;;11.90;7.00;;;21.10;99.90;;;;;;5074462;28;20913;-59
2023/08/22 07:18:35;;;;;;;7.33;6.20;;;21.20;1.00;;;;;;5076349;28;20885;-59
2023/08/22 07:21:04;;;;;;;11.13;6.03;;;21.40;99.90;;;;;;5077212;28;20457;-59
2023/08/22 07:23:33;;;;;;;7.80;5.97;;;21.40;1.00;;;;;;5077461;28;21006;-58
2023/08/22 07:26:01;;;;;;;10.73;6.07;;;21.60;1.00;;;;;;5078185;28;20462;-57
2023/08/22 07:28:28;;;;;;;11.27;5.87;;;21.70;1.00;;;;;;5079538;28;20889;-58
2023/08/22 07:30:56;;;;;;;7.47;5.40;;;21.70;1.00;;;;;;5078691;28;20471;-59
2023/08/22 07:33:23;;;;;;;10.90;5.90;;;21.80;1.00;;;;;;5078747;28;20788;-58
2023/08/22 07:35:51;;;;;;;7.30;5.03;;;21.70;99.90;;;;;;5078092;28;20457;-57
2023/08/22 07:38:18;;;;;;;8.33;5.40;;;21.80;99.90;;;;;;5078944;28;20901;-59
2023/08/22 07:40:47;;;;;;;7.20;4.87;;;21.80;99.90;;;;;;5079044;28;20500;-59
2023/08/22 07:43:14;;;;;;;8.13;4.87;;;22.00;99.90;;;;;;5078526;28;20584;-59
2023/08/22 07:45:41;;;;;;;5.93;5.03;;;22.10;99.90;;;;;;5079125;28;20463;-59
2023/08/22 07:48:10;;;;;;;7.37;5.33;;;22.10;99.90;;;;;;5078631;28;20507;-59
2023/08/22 07:50:39;;;;;;;6.93;5.00;;;22.20;99.90;;;;;;5076625;28;20496;-58
2023/08/22 07:53:09;;;;;;;5.97;4.50;;;22.60;99.90;;;;;;5077305;28;20523;-59
2023/08/22 07:55:40;;;;;;;6.50;4.80;;;23.00;99.90;;;;;;5077428;28;20465;-58
2023/08/22 07:58:10;;;;;;;6.17;4.93;;;23.60;99.90;;;;;;5077142;28;20466;-59
2023/08/22 08:00:38;;;;;;;8.57;5.00;;;23.60;1.00;;;;;;5076319;28;20461;-58
2023/08/22 08:03:08;;;;;;;7.90;5.10;;;23.70;1.00;;;;;;5077209;28;20533;-58
2023/08/22 08:05:36;;;;;;;6.77;4.80;;;23.70;1.00;;;;;;5076669;28;20466;-58
2023/08/22 08:08:05;;;;;;;10.37;4.87;;;23.60;1.00;;;;;;5076779;28;20555;-59
2023/08/22 08:10:34;;;;;;;7.30;5.10;;;24.20;1.00;;;;;;5076318;28;20461;-62
2023/08/22 08:13:03;;;;;;;6.23;5.13;;;24.80;99.90;;;;;;5075266;28;20457;-62
2023/08/22 08:15:35;;;;;;;5.70;4.90;;;25.10;1.00;;;;;;5076787;28;20496;-62
2023/08/22 08:18:03;;;;;;;5.73;4.43;;;25.30;1.00;;;;;;5076879;28;20519;-62
2023/08/22 08:20:32;;;;;;;6.50;4.20;;;25.50;1.00;;;;;;5077519;28;20461;-63
2023/08/22 08:23:01;;;;;;;6.17;4.27;;;25.60;1.00;;;;;;5077033;28;20485;-63
2023/08/22 08:25:29;;;;;;;9.93;4.80;;;26.00;1.00;;;;;;5077739;28;20811;-63
2023/08/22 08:28:00;;;;;;;6.70;4.70;;;26.30;99.90;;;;;;5077390;28;20586;-63
2023/08/22 08:30:31;;;;;;;7.23;5.53;;;26.70;99.90;;;;;;5077761;28;20461;-63
2023/08/22 08:33:03;;;;;;;6.60;5.17;;;26.80;99.90;;;;;;5076440;28;20461;-63
2023/08/22 08:35:32;;;;;;;7.10;4.63;;;26.50;1.00;;;;;;5077516;28;20845;-63
2023/08/22 08:38:00;;;;;;;4.80;3.80;;;26.60;99.90;;;;;;5077830;28;20899;-63
2023/08/22 08:40:36;;;;;;;5.00;4.50;;;26.90;99.90;;;;;;5077422;28;20761;-63
2023/08/22 08:43:05;;;;;;;8.70;4.93;;;27.00;1.00;;;;;;5076803;28;20544;-61
2023/08/22 08:45:34;;;;;;;5.93;4.77;;;27.40;30.40;;;;;;5077379;28;20457;-61
2023/08/22 08:48:04;;;;;;;6.50;4.90;;;27.50;1.00;;;;;;5077195;28;20462;-60
2023/08/22 08:50:32;;;;;;;6.73;4.60;;;27.80;99.90;;;;;;5075370;28;20493;-61
2023/08/22 08:53:00;;;;;;;6.97;4.40;;;28.20;26.90;;;;;;5072442;28;20556;-61
2023/08/22 08:55:27;;;;;;;7.33;4.33;;;28.70;1.00;;;;;;5057495;28;20472;-61
2023/08/22 08:57:55;;;;;;;7.20;4.77;;;29.40;1.00;;;;;;5064736;28;20466;-61
2023/08/22 09:00:23;;;;;;;8.20;5.13;;;29.00;1.00;;;;;;5056725;28;20454;-61
2023/08/22 09:02:50;;;;;;;9.60;4.80;;;29.10;99.90;;;;;;5074453;28;20762;-61
2023/08/22 09:05:21;;;;;;;7.73;4.70;;;29.00;1.00;;;;;;5056829;28;20497;-61
2023/08/22 09:07:49;;;;;;;9.53;4.77;;;28.80;99.90;;;;;;5057177;28;20454;-60
2023/08/22 09:10:33;;;;;;;4.70;4.20;;;28.40;99.90;;;;;;5056628;28;20957;-60
2023/08/22 09:13:04;;;;;;;6.33;4.37;;;27.20;99.90;;;;;;5068642;28;20778;-60
2023/08/22 09:15:31;;;;;;;4.13;3.40;;;27.30;99.90;;;;;;5075427;28;20453;-59
2023/08/22 09:17:59;;;;;;;6.90;4.10;;;27.10;99.90;;;;;;5075547;28;20817;-61
2023/08/22 09:20:31;;;;;;;19.70;6.17;;;27.30;99.90;;;;;;5075556;28;20568;-60
2023/08/22 09:22:59;;;;;;;8.17;4.73;;;27.90;99.90;;;;;;5073650;28;20465;-61
2023/08/22 09:25:40;;;;;;;8.13;5.83;;;28.70;99.90;;;;;;5071442;28;20558;-61
2023/08/22 09:28:11;;;;;;;8.20;5.00;;;29.00;99.90;;;;;;5076723;28;20464;-61
2023/08/22 09:30:48;;;;;;;7.00;4.60;;;29.30;99.90;;;;;;5076749;28;20468;-61
2023/08/22 09:33:15;;;;;;;9.00;4.90;;;29.40;99.90;;;;;;5073879;28;20465;-60
2023/08/22 09:35:46;;;;;;;5.77;5.17;;;28.40;99.90;;;;;;5076551;28;20460;-61
2023/08/22 09:38:14;;;;;;;6.13;4.63;;;27.70;99.90;;;;;;5076517;28;20492;-60
2023/08/22 09:40:55;;;;;;;5.40;4.60;;;27.70;99.90;;;;;;5076867;28;20472;-60
2023/08/22 09:43:25;;;;;;;6.97;4.70;;;27.20;99.90;;;;;;5076205;28;20457;-60
2023/08/22 09:45:54;;;;;;;7.17;4.63;;;26.90;99.90;;;;;;5076624;28;20476;-61
2023/08/22 09:48:33;;;;;;;11.37;4.40;;;27.40;99.90;;;;;;5075549;28;20559;-60
2023/08/22 09:51:09;;;;;;;5.83;4.80;;;27.00;99.90;;;;;;5074994;28;20823;-60
2023/08/22 09:53:39;;;;;;;7.30;4.73;;;26.70;99.90;;;;;;5075901;28;21015;-60
2023/08/22 09:56:08;;;;;;;8.37;5.17;;;26.60;99.90;;;;;;5074896;28;20461;-60
2023/08/22 09:58:38;;;;;;;7.33;5.10;;;26.80;99.90;;;;;;5076057;28;20949;-59
2023/08/22 10:01:07;;;;;;;14.40;6.00;;;26.40;99.90;;;;;;5074473;28;20470;-61
2023/08/22 10:03:35;;;;;;;6.83;6.07;;;26.20;99.90;;;;;;5074073;28;20488;-61
2023/08/22 10:06:07;;;;;;;10.37;5.00;;;26.30;99.90;;;;;;5073246;28;20472;-61
2023/08/22 10:08:37;;;;;;;6.67;4.37;;;26.00;99.90;;;;;;5073650;28;20465;-60
2023/08/22 10:11:07;;;;;;;7.47;5.33;;;26.20;99.90;;;;;;5073616;28;20541;-60
2023/08/22 10:13:38;;;;;;;10.20;5.50;;;26.30;99.90;;;;;;5074677;28;20740;-59
2023/08/22 10:16:07;;;;;;;9.40;6.23;;;26.40;99.90;;;;;;5066685;28;20893;-61
2023/08/22 10:18:35;;;;;;;6.30;5.57;;;26.90;99.90;;;;;;5074457;28;20974;-60
2023/08/22 10:21:06;;;;;;;10.70;7.07;;;27.10;99.90;;;;;;5074409;28;20465;-60
2023/08/22 10:23:58;;;;;;;8.40;5.97;;;27.30;99.90;;;;;;5074259;28;20468;-61
2023/08/22 10:26:28;;;;;;;6.67;5.60;;;27.80;99.90;;;;;;5073444;28;20498;-61
2023/08/22 10:29:18;;;;;;;25.17;10.90;;;27.90;99.90;;;;;;5074523;28;20468;-61
2023/08/22 10:32:20;;;;;;;9.50;7.30;;;28.30;99.90;;;;;;5075038;28;20464;-61
2023/08/22 10:35:25;;;;;;;12.50;6.97;;;28.10;99.90;;;;;;5079034;28;20483;-61
2023/08/22 10:37:55;;;;;;;12.27;7.70;;;28.60;99.90;;;;;;4997664;28;20756;-61
2023/08/22 10:40:30;;;;;;;9.50;6.67;;;28.70;99.90;;;;;;5066403;28;20460;-61
2023/08/22 10:43:09;;;;;;;6.60;5.23;;;28.70;99.90;;;;;;5079571;28;20488;-61
2023/08/22 10:45:48;;;;;;;13.47;6.60;;;28.90;99.90;;;;;;5079868;28;20858;-61
2023/08/22 10:48:18;;;;;;;7.70;6.17;;;28.80;99.90;;;;;;5078987;28;20753;-60
2023/08/22 10:50:47;;;;;;;7.93;6.17;;;28.50;99.90;;;;;;5079531;28;20856;-60
2023/08/22 10:53:24;;;;;;;7.40;4.87;;;28.30;99.90;;;;;;5079798;28;20552;-60
2023/08/22 10:55:52;;;;;;;10.47;5.40;;;28.30;99.90;;;;;;5080077;28;20547;-60
2023/08/22 10:58:43;;;;;;;8.87;6.07;;;28.50;99.90;;;;;;5078948;28;20511;-60
2023/08/22 11:01:19;;;;;;;9.63;5.40;;;28.20;99.90;;;;;;5077455;28;20870;-61
2023/08/22 11:03:48;;;;;;;8.43;5.80;;;28.10;99.90;;;;;;5077777;28;20471;-60
2023/08/22 11:06:18;;;;;;;8.90;5.80;;;28.00;99.90;;;;;;5079430;28;20552;-60
2023/08/22 11:08:47;;;;;;;7.70;5.97;;;28.00;99.90;;;;;;5078984;28;20461;-60
2023/08/22 11:11:19;;;;;;;6.83;4.90;;;27.80;99.90;;;;;;5076022;28;20846;-58
2023/08/22 11:13:48;;;;;;;6.60;5.30;;;28.30;99.90;;;;;;5077313;28;20762;-60
2023/08/22 11:16:17;;;;;;;9.10;5.67;;;28.60;99.90;;;;;;5076127;28;20754;-59
2023/08/22 11:18:47;;;;;;;5.73;5.13;;;28.60;99.90;;;;;;5076530;28;20471;-60
2023/08/22 11:21:15;;;;;;;7.40;5.57;;;28.60;99.90;;;;;;5076795;28;20453;-60
2023/08/22 11:23:43;;;;;;;8.53;6.20;;;28.30;99.90;;;;;;5075637;28;20771;-60
2023/08/22 11:26:12;;;;;;;8.10;6.30;;;28.10;99.90;;;;;;5076677;28;20873;-60
2023/08/22 11:28:40;;;;;;;7.60;6.67;;;27.70;99.90;;;;;;5075805;28;20512;-60
2023/08/22 11:31:16;;;;;;;8.90;8.00;;;26.90;99.90;;;;;;5077585;28;20763;-59
2023/08/22 11:33:49;;;;;;;12.27;7.37;;;26.30;99.90;;;;;;5076336;28;20813;-60
2023/08/22 11:36:17;;;;;;;11.10;7.90;;;26.40;99.90;;;;;;5077408;28;20492;-60
2023/08/22 11:38:47;;;;;;;11.23;8.30;;;26.90;99.90;;;;;;5077385;28;20563;-60
2023/08/22 11:41:16;;;;;;;11.87;8.50;;;26.70;99.90;;;;;;5077004;28;20802;-60
2023/08/22 11:43:48;;;;;;;13.87;8.93;;;26.50;99.90;;;;;;5076252;28;20546;-60
2023/08/22 11:46:15;;;;;;;12.00;8.70;;;26.90;99.90;;;;;;5076731;28;20482;-60
2023/08/22 11:48:44;;;;;;;12.23;9.73;;;27.00;99.90;;;;;;5077564;28;20462;-60
2023/08/22 11:51:21;;;;;;;12.90;10.13;;;27.30;99.90;;;;;;5076860;28;20461;-59
2023/08/22 11:53:49;;;;;;;13.77;10.20;;;26.40;99.90;;;;;;5076553;28;20461;-60
2023/08/22 11:56:20;;;;;;;11.17;9.97;;;26.40;99.90;;;;;;5076981;28;20465;-58
2023/08/22 11:58:54;;;;;;;21.93;12.37;;;26.10;99.90;;;;;;5077618;28;20996;-60
2023/08/22 12:01:23;;;;;;;16.43;12.07;;;26.30;99.90;;;;;;5077976;28;20511;-60
2023/08/22 12:03:56;;;;;;;15.90;10.27;;;26.60;99.90;;;;;;5078181;28;20457;-60
2023/08/22 12:06:24;;;;;;;18.67;13.30;;;26.90;99.90;;;;;;5078113;28;20557;-61
2023/08/22 12:09:00;;;;;;;12.43;9.60;;;27.00;99.90;;;;;;5077920;28;20519;-60
2023/08/22 12:11:30;;;;;;;13.73;10.00;;;27.40;99.90;;;;;;5078140;28;20560;-60
2023/08/22 12:13:57;;;;;;;13.40;9.30;;;27.40;99.90;;;;;;5078426;28;20461;-60
2023/08/22 12:16:24;;;;;;;12.73;9.20;;;27.10;99.90;;;;;;5077234;28;20465;-60
2023/08/22 12:18:52;;;;;;;14.63;11.10;;;27.70;99.90;;;;;;5077471;28;20780;-60
2023/08/22 12:21:19;;;;;;;10.20;9.00;;;28.00;99.90;;;;;;5078009;28;20468;-60
2023/08/22 12:23:49;;;;;;;13.43;8.97;;;28.50;99.90;;;;;;5077927;28;20475;-61
2023/08/22 12:26:16;;;;;;;11.90;9.13;;;28.90;99.90;;;;;;5078167;28;20492;-60
2023/08/22 12:28:45;;;;;;;11.13;9.70;;;29.10;99.90;;;;;;5077106;28;20474;-60
2023/08/22 12:31:14;;;;;;;9.93;9.03;;;28.00;99.90;;;;;;5078036;28;20461;-60
2023/08/22 12:33:42;;;;;;;9.60;8.60;;;27.00;74.80;;;;;;5076734;28;21004;-60
2023/08/22 12:36:09;;;;;;;15.50;9.90;;;26.40;99.90;;;;;;5078009;28;20495;-60
2023/08/22 12:38:36;;;;;;;10.90;9.20;;;26.40;99.90;;;;;;5077453;28;20465;-59
2023/08/22 12:41:07;;;;;;;9.80;8.80;;;26.20;99.90;;;;;;5077415;28;20912;-60
2023/08/22 12:43:35;;;;;;;10.83;9.70;;;26.80;99.90;;;;;;5077450;28;20936;-61
2023/08/22 12:46:04;;;;;;;9.67;8.67;;;27.40;99.90;;;;;;5077690;28;20582;-61
2023/08/22 12:48:32;;;;;;;14.00;8.10;;;27.60;99.90;;;;;;5077885;28;20948;-61
2023/08/22 12:51:00;;;;;;;10.33;9.30;;;28.40;99.90;;;;;;5075107;28;20473;-60
2023/08/22 12:53:27;;;;;;;10.27;7.97;;;28.60;99.90;;;;;;5077538;28;20552;-61
2023/08/22 12:55:54;;;;;;;7.80;6.63;;;28.60;99.90;;;;;;5076344;28;20859;-61